Time;durP1;ratioP1;P1;durP2;ratioP2;P2;SDS_P1;SDS_P2;PMS_P1;PMS_P2;Temp;Humidity;BMP_temperature;BMP_pressure;BME280_temperature;BME280_humidity;BME280_pressure;Samples;Min_cycle;Max_cycle;Signal;HPM_P1;HPM_P2
2020/12/05 00:02:38;;;;;;;45.13;26.42;;;;;;;;;;5044499;28;20025;-87
2020/12/05 00:05:23;;;;;;;41.22;25.83;;;;;;;;;;5044992;28;20067;-87
2020/12/05 00:08:09;;;;;;;45.53;26.83;;;;;;;;;;5048408;28;20064;-84
2020/12/05 00:10:55;;;;;;;43.67;26.63;;;;;;;;;;5042219;28;20036;-87
2020/12/05 00:13:43;;;;;;;42.70;26.38;;;;;;;;;;5042996;28;20032;-85
2020/12/05 00:16:32;;;;;;;42.90;25.17;;;;;;;;;;5047626;28;20037;-87
2020/12/05 00:19:19;;;;;;;39.58;26.02;;;;;;;;;;5041032;28;20021;-87
2020/12/05 00:22:04;;;;;;;37.35;23.02;;;;;;;;;;5038259;28;20021;-86
2020/12/05 00:24:51;;;;;;;36.92;24.85;;;;;;;;;;5049450;28;20040;-86
2020/12/05 00:27:36;;;;;;;36.03;22.73;;;;;;;;;;5049205;28;20029;-89
2020/12/05 00:30:28;;;;;;;38.05;21.05;;;;;;;;;;5044874;28;20035;-81
2020/12/05 00:33:13;;;;;;;42.55;25.08;;;;;;;;;;5048821;28;20048;-85
2020/12/05 00:35:59;;;;;;;43.10;27.27;;;;;;;;;;5059991;28;20029;-80
2020/12/05 00:38:44;;;;;;;43.17;25.48;;;;;;;;;;5075307;28;20017;-84
2020/12/05 00:41:30;;;;;;;37.55;23.85;;;;;;;;;;5066386;28;20024;-80
2020/12/05 00:44:15;;;;;;;38.80;24.45;;;;;;;;;;5060245;28;20494;-82
2020/12/05 00:47:00;;;;;;;39.50;23.42;;;;;;;;;;5064173;28;20031;-85
2020/12/05 00:49:45;;;;;;;40.50;25.70;;;;;;;;;;5061493;28;20020;-85
2020/12/05 00:52:31;;;;;;;42.30;25.98;;;;;;;;;;5064394;28;20031;-85
2020/12/05 00:55:16;;;;;;;40.75;25.30;;;;;;;;;;5062908;28;20024;-86
2020/12/05 00:58:02;;;;;;;43.40;27.80;;;;;;;;;;5057812;28;20021;-83
2020/12/05 01:00:47;;;;;;;43.58;27.48;;;;;;;;;;5043275;28;20054;-87
2020/12/05 01:03:33;;;;;;;41.05;26.63;;;;;;;;;;5063199;28;20031;-84
2020/12/05 01:06:18;;;;;;;41.45;27.00;;;;;;;;;;5066843;28;20466;-83
2020/12/05 01:09:04;;;;;;;36.38;23.83;;;;;;;;;;5064118;28;20028;-85
2020/12/05 01:11:52;;;;;;;40.33;25.00;;;;;;;;;;5061981;28;20040;-88
2020/12/05 01:14:38;;;;;;;45.08;27.35;;;;;;;;;;5067509;28;20119;-86
2020/12/05 01:17:24;;;;;;;42.35;25.88;;;;;;;;;;5057845;28;20479;-87
2020/12/05 01:20:13;;;;;;;42.88;28.65;;;;;;;;;;5067695;28;20132;-86
2020/12/05 01:22:59;;;;;;;49.63;29.25;;;;;;;;;;5066378;28;20097;-86
2020/12/05 01:25:44;;;;;;;42.65;25.35;;;;;;;;;;5071584;28;20016;-86
2020/12/05 01:28:30;;;;;;;40.55;26.02;;;;;;;;;;5066115;28;20032;-87
2020/12/05 01:31:15;;;;;;;37.75;24.17;;;;;;;;;;5062819;28;20035;-86
2020/12/05 01:34:02;;;;;;;39.75;25.38;;;;;;;;;;5056487;28;20055;-85
2020/12/05 01:36:48;;;;;;;42.78;24.33;;;;;;;;;;5056447;28;20094;-87
2020/12/05 01:39:33;;;;;;;36.30;23.13;;;;;;;;;;5062394;28;20039;-86
2020/12/05 01:42:19;;;;;;;39.00;25.00;;;;;;;;;;5053071;28;20112;-87
2020/12/05 01:45:04;;;;;;;37.70;23.38;;;;;;;;;;5053576;28;20017;-84
2020/12/05 01:47:49;;;;;;;41.08;24.50;;;;;;;;;;5054395;28;20526;-85
2020/12/05 01:50:35;;;;;;;43.78;25.98;;;;;;;;;;5054002;28;20027;-85
2020/12/05 01:53:21;;;;;;;47.42;27.88;;;;;;;;;;5035773;28;20062;-85
2020/12/05 01:56:06;;;;;;;43.97;23.38;;;;;;;;;;5055830;28;20025;-84
2020/12/05 01:58:52;;;;;;;43.55;28.38;;;;;;;;;;5058403;28;20418;-85
2020/12/05 02:01:38;;;;;;;41.92;25.67;;;;;;;;;;5060634;28;20032;-83
2020/12/05 02:04:33;;;;;;;50.67;29.48;;;;;;;;;;5061333;28;20024;-85
2020/12/05 02:07:21;;;;;;;47.75;27.63;;;;;;;;;;5064613;28;20029;-86
2020/12/05 02:10:09;;;;;;;44.83;28.27;;;;;;;;;;5057277;28;20015;-84
2020/12/05 02:13:08;;;;;;;41.65;26.70;;;;;;;;;;5057940;28;20027;-86
2020/12/05 02:15:55;;;;;;;37.88;22.77;;;;;;;;;;5060438;28;20017;-85
2020/12/05 02:18:41;;;;;;;44.33;28.10;;;;;;;;;;5056617;28;20028;-88
2020/12/05 02:21:28;;;;;;;48.60;30.77;;;;;;;;;;5058833;28;20485;-87
2020/12/05 02:24:14;;;;;;;42.85;26.83;;;;;;;;;;5059164;28;20055;-86
2020/12/05 02:26:59;;;;;;;39.78;26.00;;;;;;;;;;5059056;28;20024;-85
2020/12/05 02:29:44;;;;;;;32.10;21.05;;;;;;;;;;5040207;28;20020;-86
2020/12/05 02:32:29;;;;;;;31.10;21.33;;;;;;;;;;5056465;28;20075;-86
2020/12/05 02:35:15;;;;;;;33.90;22.20;;;;;;;;;;5053312;28;20107;-85
2020/12/05 02:38:05;;;;;;;35.08;23.60;;;;;;;;;;5056472;28;20024;-85
2020/12/05 02:40:51;;;;;;;38.63;24.38;;;;;;;;;;5064700;28;20024;-85
2020/12/05 02:43:37;;;;;;;43.40;27.75;;;;;;;;;;5058455;28;20020;-85
2020/12/05 02:46:23;;;;;;;36.92;23.63;;;;;;;;;;5058558;28;20021;-85
2020/12/05 02:49:08;;;;;;;38.45;25.60;;;;;;;;;;5060730;28;20082;-85
2020/12/05 02:51:53;;;;;;;42.40;26.95;;;;;;;;;;5056514;28;20032;-86
2020/12/05 02:54:38;;;;;;;27.70;18.58;;;;;;;;;;5058579;28;20399;-86
2020/12/05 02:57:24;;;;;;;25.27;18.42;;;;;;;;;;5064740;28;20031;-85
2020/12/05 03:00:09;;;;;;;31.70;21.58;;;;;;;;;;5059894;28;20025;-86
2020/12/05 03:02:55;;;;;;;28.30;20.00;;;;;;;;;;5063341;28;20029;-85
2020/12/05 03:05:40;;;;;;;24.48;17.30;;;;;;;;;;5061778;28;20017;-84
2020/12/05 03:08:26;;;;;;;29.45;20.13;;;;;;;;;;5073148;28;20027;-84
2020/12/05 03:11:12;;;;;;;34.63;20.95;;;;;;;;;;5082279;28;20025;-83
2020/12/05 03:13:57;;;;;;;28.17;19.25;;;;;;;;;;5069162;28;20016;-85
2020/12/05 03:16:42;;;;;;;27.70;19.17;;;;;;;;;;5051316;28;20107;-87
2020/12/05 03:19:28;;;;;;;32.38;21.88;;;;;;;;;;5068652;28;20550;-86
2020/12/05 03:22:13;;;;;;;25.35;17.90;;;;;;;;;;5058086;28;20112;-86
2020/12/05 03:24:58;;;;;;;30.70;20.75;;;;;;;;;;5062384;28;20013;-87
2020/12/05 03:27:46;;;;;;;26.40;18.52;;;;;;;;;;5069070;28;20064;-87
2020/12/05 03:30:32;;;;;;;28.17;19.88;;;;;;;;;;5058262;28;20029;-86
2020/12/05 03:33:19;;;;;;;30.48;20.77;;;;;;;;;;5042939;28;20040;-86
2020/12/05 03:36:05;;;;;;;24.60;17.45;;;;;;;;;;5055853;28;20103;-85
2020/12/05 03:38:53;;;;;;;22.08;15.80;;;;;;;;;;5064348;28;20027;-86
2020/12/05 03:41:39;;;;;;;22.35;15.95;;;;;;;;;;5060333;28;20394;-87
2020/12/05 03:44:24;;;;;;;28.08;18.65;;;;;;;;;;5055633;28;20025;-85
2020/12/05 03:47:10;;;;;;;23.55;18.15;;;;;;;;;;5060727;28;20043;-85
2020/12/05 03:49:56;;;;;;;22.60;16.10;;;;;;;;;;5058836;28;20383;-85
2020/12/05 03:52:42;;;;;;;23.48;17.30;;;;;;;;;;5059414;28;20052;-84
2020/12/05 03:55:27;;;;;;;19.98;14.35;;;;;;;;;;5063175;28;20013;-83
2020/12/05 03:58:12;;;;;;;25.13;17.45;;;;;;;;;;5058161;28;20035;-84
2020/12/05 04:00:58;;;;;;;22.13;16.33;;;;;;;;;;5058371;28;20135;-84
2020/12/05 04:03:43;;;;;;;19.75;14.05;;;;;;;;;;5059645;28;20024;-84
2020/12/05 04:06:28;;;;;;;22.00;14.88;;;;;;;;;;5059325;28;20028;-85
2020/12/05 04:09:14;;;;;;;20.83;15.98;;;;;;;;;;5060615;28;20378;-83
2020/12/05 04:11:59;;;;;;;26.30;18.65;;;;;;;;;;5057057;28;20032;-83
2020/12/05 04:14:45;;;;;;;23.15;14.68;;;;;;;;;;5063401;28;20471;-83
2020/12/05 04:17:30;;;;;;;20.40;14.82;;;;;;;;;;5054163;28;20036;-82
2020/12/05 04:20:16;;;;;;;20.65;14.90;;;;;;;;;;5055102;28;20467;-83
2020/12/05 04:23:01;;;;;;;27.40;16.73;;;;;;;;;;5052487;28;20021;-82
2020/12/05 04:25:47;;;;;;;28.25;17.65;;;;;;;;;;5042201;28;20540;-82
2020/12/05 04:28:32;;;;;;;22.67;16.00;;;;;;;;;;5059969;28;20498;-81
2020/12/05 04:31:17;;;;;;;27.08;17.52;;;;;;;;;;5053683;28;20092;-84
2020/12/05 04:34:03;;;;;;;24.20;16.30;;;;;;;;;;5063748;28;20496;-84
2020/12/05 04:36:48;;;;;;;24.33;16.85;;;;;;;;;;5047293;28;20047;-83
2020/12/05 04:39:36;;;;;;;23.27;16.15;;;;;;;;;;5049646;28;20142;-83
2020/12/05 04:42:22;;;;;;;22.73;15.32;;;;;;;;;;5058090;28;20116;-82
2020/12/05 04:45:07;;;;;;;22.92;16.45;;;;;;;;;;5053434;28;20021;-81
2020/12/05 04:47:54;;;;;;;20.45;14.10;;;;;;;;;;5060149;28;20495;-81
2020/12/05 04:50:41;;;;;;;22.00;15.27;;;;;;;;;;5058226;28;20455;-81
2020/12/05 04:53:27;;;;;;;23.35;16.27;;;;;;;;;;5058376;28;20027;-79
2020/12/05 04:56:16;;;;;;;18.95;13.77;;;;;;;;;;5060350;28;20086;-81
2020/12/05 04:59:02;;;;;;;18.33;13.33;;;;;;;;;;5041444;28;20028;-81
2020/12/05 05:01:50;;;;;;;19.77;14.73;;;;;;;;;;5061386;28;20024;-83
2020/12/05 05:04:35;;;;;;;17.52;12.13;;;;;;;;;;5061277;28;20717;-82
2020/12/05 05:07:21;;;;;;;15.88;11.30;;;;;;;;;;5061005;28;20131;-81
2020/12/05 05:10:13;;;;;;;19.33;13.25;;;;;;;;;;5056918;28;20025;-82
2020/12/05 05:13:19;;;;;;;20.58;13.80;;;;;;;;;;5059885;28;20036;-82
2020/12/05 05:16:13;;;;;;;20.40;13.52;;;;;;;;;;5056515;28;20120;-82
2020/12/05 05:19:18;;;;;;;20.02;14.20;;;;;;;;;;5057997;28;20099;-85
2020/12/05 05:22:03;;;;;;;23.70;15.68;;;;;;;;;;5050961;28;20021;-85
2020/12/05 05:25:02;;;;;;;20.35;14.13;;;;;;;;;;5051600;28;20024;-85
2020/12/05 05:28:00;;;;;;;18.13;11.20;;;;;;;;;;5061370;28;20025;-85
2020/12/05 05:31:20;;;;;;;21.13;12.95;;;;;;;;;;5056116;28;20028;-84
2020/12/05 05:34:05;;;;;;;20.55;11.40;;;;;;;;;;5057953;28;20052;-84
2020/12/05 05:36:51;;;;;;;18.67;13.15;;;;;;;;;;5057725;28;20039;-84
2020/12/05 05:39:42;;;;;;;15.00;10.77;;;;;;;;;;5060272;28;20029;-84
2020/12/05 05:42:31;;;;;;;14.93;10.63;;;;;;;;;;5059340;28;20028;-85
2020/12/05 05:45:18;;;;;;;17.92;12.48;;;;;;;;;;5059304;28;20024;-84
2020/12/05 05:48:03;;;;;;;15.63;11.43;;;;;;;;;;5057925;28;20017;-81
2020/12/05 05:50:49;;;;;;;14.10;10.95;;;;;;;;;;5059023;28;20043;-85
2020/12/05 05:53:34;;;;;;;16.40;11.57;;;;;;;;;;5055977;28;20078;-82
2020/12/05 05:56:22;;;;;;;22.02;12.13;;;;;;;;;;5057469;28;20040;-83
2020/12/05 05:59:09;;;;;;;17.35;12.85;;;;;;;;;;5065339;28;20020;-85
2020/12/05 06:01:55;;;;;;;16.48;11.57;;;;;;;;;;5039216;28;20029;-84
2020/12/05 06:04:45;;;;;;;20.88;14.70;;;;;;;;;;5055710;28;20021;-82
2020/12/05 06:07:35;;;;;;;19.35;12.82;;;;;;;;;;5053869;28;20025;-85
2020/12/05 06:10:22;;;;;;;18.75;12.77;;;;;;;;;;5061682;28;20064;-84
2020/12/05 06:13:09;;;;;;;18.73;13.52;;;;;;;;;;5064106;28;20115;-84
2020/12/05 06:15:55;;;;;;;19.40;12.32;;;;;;;;;;5058028;28;20029;-82
2020/12/05 06:18:41;;;;;;;17.13;12.82;;;;;;;;;;5053476;28;20025;-83
2020/12/05 06:21:31;;;;;;;18.83;13.30;;;;;;;;;;5057253;28;20033;-82
2020/12/05 06:24:24;;;;;;;16.88;11.27;;;;;;;;;;5043826;28;20158;-82
2020/12/05 06:27:09;;;;;;;15.52;10.57;;;;;;;;;;5051917;28;20089;-82
2020/12/05 06:29:56;;;;;;;17.27;12.57;;;;;;;;;;5062622;28;20056;-84
2020/12/05 06:32:48;;;;;;;20.15;13.38;;;;;;;;;;5054897;28;20072;-84
2020/12/05 06:35:34;;;;;;;18.58;12.40;;;;;;;;;;5056015;28;20025;-86
2020/12/05 06:38:20;;;;;;;18.35;12.55;;;;;;;;;;5055767;28;20104;-85
2020/12/05 06:41:05;;;;;;;15.73;11.25;;;;;;;;;;5057470;28;20023;-86
2020/12/05 06:44:09;;;;;;;19.35;10.77;;;;;;;;;;5061203;28;20020;-84
2020/12/05 06:46:55;;;;;;;19.35;11.50;;;;;;;;;;5059992;28;20501;-85
2020/12/05 06:49:40;;;;;;;19.08;13.07;;;;;;;;;;5050613;28;20062;-83
2020/12/05 06:52:28;;;;;;;17.52;10.93;;;;;;;;;;5058186;28;20075;-88
2020/12/05 06:55:37;;;;;;;18.08;11.27;;;;;;;;;;5023815;28;20117;-84
2020/12/05 07:02:33;;;;;;;17.70;12.48;;;;;;;;;;5002069;28;20544;-85
2020/12/05 07:05:34;;;;;;;14.80;9.95;;;;;;;;;;5011625;28;20582;-85
2020/12/05 07:08:19;;;;;;;14.77;9.93;;;;;;;;;;4931158;29;20054;-85
2020/12/05 07:14:31;;;;;;;31.20;21.38;;;;;;;;;;4960371;28;20205;-85
2020/12/05 07:21:12;;;;;;;15.95;8.80;;;;;;;;;;4931552;29;20413;-85
2020/12/05 07:24:44;;;;;;;21.13;10.57;;;;;;;;;;4976657;28;20037;-85
2020/12/05 07:28:08;;;;;;;15.90;8.85;;;;;;;;;;4987099;28;20025;-88
2020/12/05 07:31:06;;;;;;;11.15;7.55;;;;;;;;;;4966216;28;20034;-87
2020/12/05 07:37:09;;;;;;;14.68;9.00;;;;;;;;;;4941095;28;20525;-85
2020/12/05 07:40:35;;;;;;;12.60;7.72;;;;;;;;;;4991623;28;20034;-85
2020/12/05 07:43:23;;;;;;;8.77;6.50;;;;;;;;;;4982240;28;20045;-87
2020/12/05 07:46:12;;;;;;;13.40;8.02;;;;;;;;;;4989090;28;20265;-83
2020/12/05 07:49:13;;;;;;;13.57;8.75;;;;;;;;;;5001944;28;20046;-84
2020/12/05 07:52:01;;;;;;;15.05;6.93;;;;;;;;;;5019719;28;20115;-85
2020/12/05 07:55:19;;;;;;;13.27;7.75;;;;;;;;;;5029958;28;20042;-85
2020/12/05 07:58:16;;;;;;;11.60;7.35;;;;;;;;;;5016292;28;20037;-85
2020/12/05 08:01:10;;;;;;;;;;;;;;;;;;5011319;28;20040;-86
2020/12/05 08:04:01;;;;;;;15.35;10.13;;;;;;;;;;5004302;28;20256;-88
2020/12/05 08:07:02;;;;;;;68.40;44.08;;;;;;;;;;5066678;28;20471;-89
2020/12/05 08:09:51;;;;;;;15.13;9.43;;;;;;;;;;5064162;28;20017;-87
2020/12/05 08:12:55;;;;;;;11.93;7.72;;;;;;;;;;5046820;28;20047;-90
2020/12/05 08:15:48;;;;;;;12.57;6.90;;;;;;;;;;5076078;28;20084;-90
2020/12/05 08:18:43;;;;;;;17.65;7.43;;;;;;;;;;5064355;28;20021;-87
2020/12/05 08:21:29;;;;;;;11.90;7.55;;;;;;;;;;5052782;28;20043;-90
2020/12/05 08:24:14;;;;;;;12.82;8.10;;;;;;;;;;5066704;28;20088;-89
2020/12/05 08:26:59;;;;;;;10.75;7.78;;;;;;;;;;5060724;28;20056;-88
2020/12/05 08:33:18;;;;;;;13.00;8.70;;;;;;;;;;5024152;28;20524;-75
2020/12/05 08:36:13;;;;;;;11.60;6.88;;;;;;;;;;5029513;28;20124;-77
2020/12/05 08:39:03;;;;;;;9.25;6.60;;;;;;;;;;5048294;28;20372;-76
2020/12/05 08:41:51;;;;;;;11.20;6.50;;;;;;;;;;5057498;28;20049;-91
2020/12/05 08:44:38;;;;;;;10.25;6.90;;;;;;;;;;5045851;28;20024;-91
2020/12/05 08:47:24;;;;;;;10.07;6.53;;;;;;;;;;5064001;28;20055;-93
2020/12/05 08:50:23;;;;;;;11.13;6.93;;;;;;;;;;5065560;28;20452;-93
2020/12/05 08:53:09;;;;;;;11.85;7.72;;;;;;;;;;5048990;28;20025;-92
2020/12/05 08:55:55;;;;;;;60.38;42.30;;;;;;;;;;5060375;28;20024;-90
2020/12/05 08:58:44;;;;;;;36.00;25.52;;;;;;;;;;5051700;28;20028;-88
2020/12/05 09:01:39;;;;;;;10.43;7.60;;;;;;;;;;5056856;28;20117;-89
2020/12/05 09:04:25;;;;;;;10.95;7.15;;;;;;;;;;5059647;28;20036;-88
2020/12/05 09:07:15;;;;;;;11.90;6.68;;;;;;;;;;5055753;28;20024;-88
2020/12/05 09:10:13;;;;;;;8.27;6.20;;;;;;;;;;5053057;28;20495;-88
2020/12/05 09:13:05;;;;;;;10.02;4.85;;;;;;;;;;5060048;28;20035;-88
2020/12/05 09:15:55;;;;;;;8.27;4.38;;;;;;;;;;5057624;28;20305;-88
2020/12/05 09:18:44;;;;;;;8.07;4.18;;;;;;;;;;5057178;28;20043;-86
2020/12/05 09:21:35;;;;;;;8.90;4.97;;;;;;;;;;5055750;28;20426;-87
2020/12/05 09:24:20;;;;;;;10.27;5.85;;;;;;;;;;5057523;28;20012;-85
2020/12/05 09:27:05;;;;;;;7.15;3.85;;;;;;;;;;5057048;28;20475;-88
2020/12/05 09:29:50;;;;;;;10.70;5.00;;;;;;;;;;5057858;28;20461;-91
2020/12/05 09:32:40;;;;;;;8.57;5.05;;;;;;;;;;5066301;28;20033;-75
2020/12/05 09:35:25;;;;;;;20.13;12.32;;;;;;;;;;5063519;28;20020;-91
2020/12/05 09:38:11;;;;;;;14.15;8.27;;;;;;;;;;5060003;28;20134;-91
2020/12/05 09:40:57;;;;;;;11.70;6.07;;;;;;;;;;5059288;28;20120;-90
2020/12/05 09:43:42;;;;;;;10.65;5.45;;;;;;;;;;5056009;28;20021;-90
2020/12/05 09:46:27;;;;;;;12.75;6.43;;;;;;;;;;5060230;28;20056;-88
2020/12/05 09:49:13;;;;;;;8.25;4.65;;;;;;;;;;5056807;28;20783;-89
2020/12/05 09:51:58;;;;;;;10.95;4.60;;;;;;;;;;5046068;28;20088;-88
2020/12/05 09:54:43;;;;;;;6.32;3.75;;;;;;;;;;5055273;28;20036;-88
2020/12/05 09:57:29;;;;;;;8.20;4.72;;;;;;;;;;5054506;28;20028;-81
2020/12/05 10:00:14;;;;;;;8.93;5.28;;;;;;;;;;5055474;28;20471;-83
2020/12/05 10:02:59;;;;;;;9.20;5.03;;;;;;;;;;5058884;28;20417;-83
2020/12/05 10:05:45;;;;;;;46.67;25.85;;;;;;;;;;5054676;28;20019;-81
2020/12/05 10:08:30;;;;;;;11.98;7.55;;;;;;;;;;5056037;28;20508;-81
2020/12/05 10:11:15;;;;;;;8.20;5.55;;;;;;;;;;5052947;28;20116;-82
2020/12/05 10:14:00;;;;;;;11.10;4.63;;;;;;;;;;5055667;28;20025;-80
2020/12/05 10:16:46;;;;;;;7.97;4.82;;;;;;;;;;5054418;28;20025;-82
2020/12/05 10:19:31;;;;;;;9.65;5.65;;;;;;;;;;5055590;28;20017;-83
2020/12/05 10:22:16;;;;;;;9.13;6.20;;;;;;;;;;5055933;28;20024;-82
2020/12/05 10:25:06;;;;;;;11.07;5.95;;;;;;;;;;5059224;28;20021;-83
2020/12/05 10:27:51;;;;;;;10.90;5.82;;;;;;;;;;5067325;28;20534;-83
2020/12/05 10:30:36;;;;;;;10.05;5.70;;;;;;;;;;5054727;28;20029;-79
2020/12/05 10:33:24;;;;;;;10.63;6.82;;;;;;;;;;5056525;28;20045;-81
2020/12/05 10:36:10;;;;;;;8.05;5.40;;;;;;;;;;5060631;28;20040;-81
2020/12/05 10:38:55;;;;;;;12.20;6.80;;;;;;;;;;5059456;28;20032;-80
2020/12/05 10:41:40;;;;;;;17.80;8.27;;;;;;;;;;5055374;28;20027;-81
2020/12/05 10:44:26;;;;;;;17.13;8.98;;;;;;;;;;5058207;28;20032;-82
2020/12/05 10:47:11;;;;;;;12.55;8.45;;;;;;;;;;5060593;28;20038;-80
2020/12/05 10:49:56;;;;;;;13.35;8.68;;;;;;;;;;5056852;28;20017;-82
2020/12/05 10:52:41;;;;;;;12.55;9.25;;;;;;;;;;5055832;28;20167;-81
2020/12/05 10:55:27;;;;;;;14.52;8.52;;;;;;;;;;5057678;28;20025;-81
2020/12/05 10:58:12;;;;;;;12.95;9.30;;;;;;;;;;5052402;28;20021;-81
2020/12/05 11:00:57;;;;;;;11.70;8.15;;;;;;;;;;5055891;28;20024;-80
2020/12/05 11:03:42;;;;;;;25.58;9.02;;;;;;;;;;5054424;28;20021;-82
2020/12/05 11:06:28;;;;;;;31.70;9.32;;;;;;;;;;5057285;28;20430;-81
2020/12/05 11:09:13;;;;;;;18.33;10.02;;;;;;;;;;5054124;28;20079;-83
2020/12/05 11:11:58;;;;;;;14.20;8.82;;;;;;;;;;5055619;28;20028;-82
2020/12/05 11:14:46;;;;;;;15.68;10.90;;;;;;;;;;5039365;28;20029;-81
2020/12/05 11:17:34;;;;;;;14.27;10.25;;;;;;;;;;5060934;28;20123;-84
2020/12/05 11:20:21;;;;;;;20.63;10.85;;;;;;;;;;5041991;28;20017;-82
2020/12/05 11:23:07;;;;;;;31.35;12.05;;;;;;;;;;5058087;28;20013;-83
2020/12/05 11:25:52;;;;;;;23.55;9.93;;;;;;;;;;5044558;28;20101;-83
2020/12/05 11:28:38;;;;;;;16.48;10.05;;;;;;;;;;5062156;28;20126;-88
2020/12/05 11:31:23;;;;;;;14.55;9.02;;;;;;;;;;5057394;28;20021;-88
2020/12/05 11:34:08;;;;;;;13.90;9.57;;;;;;;;;;5052523;28;20053;-90
2020/12/05 11:36:54;;;;;;;13.35;8.88;;;;;;;;;;5058229;28;20024;-82
2020/12/05 11:39:40;;;;;;;15.65;10.18;;;;;;;;;;5052214;28;20055;-89
2020/12/05 11:42:32;;;;;;;12.75;9.25;;;;;;;;;;5058470;28;20036;-83
2020/12/05 11:45:17;;;;;;;15.98;12.40;;;;;;;;;;5069016;28;20037;-88
2020/12/05 11:48:03;;;;;;;13.63;10.32;;;;;;;;;;5078245;28;20028;-86
2020/12/05 11:50:48;;;;;;;13.23;8.68;;;;;;;;;;5065460;28;20021;-85
2020/12/05 11:53:36;;;;;;;16.35;11.30;;;;;;;;;;5062641;28;20017;-85
2020/12/05 11:56:24;;;;;;;14.30;10.32;;;;;;;;;;5054321;28;20024;-85
2020/12/05 11:59:09;;;;;;;13.60;10.63;;;;;;;;;;5058782;28;20025;-86
2020/12/05 12:01:54;;;;;;;15.20;10.80;;;;;;;;;;5056218;28;20055;-84
2020/12/05 12:04:40;;;;;;;16.13;11.65;;;;;;;;;;5062065;28;21131;-85
2020/12/05 12:07:25;;;;;;;11.48;9.20;;;;;;;;;;5055872;28;20082;-86
2020/12/05 12:10:11;;;;;;;15.13;10.80;;;;;;;;;;5058941;28;20304;-85
2020/12/05 12:12:56;;;;;;;14.77;10.85;;;;;;;;;;5060471;28;20376;-85
2020/12/05 12:15:42;;;;;;;11.48;8.65;;;;;;;;;;5059660;28;20055;-86
2020/12/05 12:18:27;;;;;;;17.48;9.68;;;;;;;;;;5062967;28;20028;-86
2020/12/05 12:21:12;;;;;;;15.20;10.35;;;;;;;;;;5053570;28;20021;-87
2020/12/05 12:23:58;;;;;;;13.57;10.15;;;;;;;;;;5062813;28;20297;-85
2020/12/05 12:26:43;;;;;;;17.00;11.70;;;;;;;;;;5055474;28;20034;-86
2020/12/05 12:29:29;;;;;;;15.27;11.45;;;;;;;;;;5058285;28;20029;-85
2020/12/05 12:32:14;;;;;;;17.52;11.93;;;;;;;;;;5062798;28;20142;-85
2020/12/05 12:34:59;;;;;;;14.90;11.15;;;;;;;;;;5047451;28;20063;-85
2020/12/05 12:37:45;;;;;;;18.42;11.10;;;;;;;;;;5037742;28;20123;-85
2020/12/05 12:40:30;;;;;;;16.63;12.82;;;;;;;;;;5044795;28;20052;-86
2020/12/05 12:43:16;;;;;;;15.40;10.57;;;;;;;;;;5040386;28;20021;-85
2020/12/05 12:46:04;;;;;;;16.80;12.68;;;;;;;;;;5042244;28;20029;-86
2020/12/05 12:48:50;;;;;;;15.68;11.23;;;;;;;;;;5043386;28;20032;-86
2020/12/05 12:51:35;;;;;;;16.30;10.48;;;;;;;;;;5046384;28;20081;-86
2020/12/05 12:54:20;;;;;;;16.00;10.93;;;;;;;;;;5042026;28;20276;-86
2020/12/05 12:57:06;;;;;;;16.40;11.48;;;;;;;;;;5048005;28;20043;-86
2020/12/05 12:59:51;;;;;;;15.15;11.05;;;;;;;;;;5040328;28;20020;-86
2020/12/05 13:02:37;;;;;;;15.35;10.27;;;;;;;;;;5037742;28;20051;-85
2020/12/05 13:05:22;;;;;;;13.48;11.05;;;;;;;;;;5044694;28;20116;-85
2020/12/05 13:08:07;;;;;;;13.77;9.20;;;;;;;;;;5044855;28;20255;-86
2020/12/05 13:10:53;;;;;;;16.38;11.35;;;;;;;;;;5044300;28;20016;-87
2020/12/05 13:13:38;;;;;;;13.90;9.65;;;;;;;;;;5027793;28;20515;-85
2020/12/05 13:16:24;;;;;;;15.18;10.85;;;;;;;;;;5048473;28;20118;-86
2020/12/05 13:19:09;;;;;;;14.65;11.13;;;;;;;;;;5044989;28;20024;-85
2020/12/05 13:21:55;;;;;;;16.08;10.55;;;;;;;;;;5041684;28;20490;-86
2020/12/05 13:24:41;;;;;;;18.02;11.48;;;;;;;;;;5041854;28;20039;-85
2020/12/05 13:27:26;;;;;;;15.00;10.88;;;;;;;;;;5046331;28;20096;-85
2020/12/05 13:30:11;;;;;;;15.35;10.75;;;;;;;;;;5045590;28;20383;-85
2020/12/05 13:32:57;;;;;;;14.98;10.38;;;;;;;;;;5050207;28;20098;-85
2020/12/05 13:35:42;;;;;;;13.20;8.82;;;;;;;;;;5062372;28;20086;-86
2020/12/05 13:38:27;;;;;;;14.32;10.55;;;;;;;;;;5057332;28;20488;-85
2020/12/05 13:41:13;;;;;;;14.50;9.38;;;;;;;;;;5070129;28;20016;-85
2020/12/05 13:43:59;;;;;;;15.55;10.55;;;;;;;;;;5061180;28;20023;-88
2020/12/05 13:46:51;;;;;;;15.52;10.68;;;;;;;;;;5063209;28;20055;-87
2020/12/05 13:49:37;;;;;;;15.18;11.05;;;;;;;;;;5055867;28;20032;-86
2020/12/05 13:52:22;;;;;;;13.25;10.15;;;;;;;;;;5070602;28;20115;-86
2020/12/05 13:55:07;;;;;;;15.38;9.90;;;;;;;;;;5050228;28;20025;-86
2020/12/05 13:57:53;;;;;;;14.00;9.98;;;;;;;;;;5061481;28;20567;-86
2020/12/05 14:00:38;;;;;;;13.40;9.65;;;;;;;;;;5068046;28;20009;-86
2020/12/05 14:03:24;;;;;;;14.40;10.30;;;;;;;;;;5060360;28;20032;-87
2020/12/05 14:06:10;;;;;;;15.02;10.15;;;;;;;;;;5062021;28;20035;-86
2020/12/05 14:08:55;;;;;;;11.85;9.32;;;;;;;;;;5058130;28;20050;-86
2020/12/05 14:11:40;;;;;;;15.45;12.20;;;;;;;;;;5064263;28;20115;-86
2020/12/05 14:14:26;;;;;;;15.23;11.18;;;;;;;;;;5066526;28;20115;-86
2020/12/05 14:17:11;;;;;;;16.80;10.80;;;;;;;;;;5062050;28;20032;-86
2020/12/05 14:19:57;;;;;;;13.40;10.02;;;;;;;;;;5062768;28;20035;-86
2020/12/05 14:22:42;;;;;;;15.80;11.50;;;;;;;;;;5063712;28;20031;-86
2020/12/05 14:25:28;;;;;;;19.13;12.13;;;;;;;;;;5063701;28;20467;-86
2020/12/05 14:28:13;;;;;;;16.05;10.93;;;;;;;;;;5064017;28;20020;-85
2020/12/05 14:30:58;;;;;;;15.88;10.82;;;;;;;;;;5061631;28;20020;-86
2020/12/05 14:33:44;;;;;;;16.08;11.00;;;;;;;;;;5057190;28;20667;-85
2020/12/05 14:36:29;;;;;;;16.48;12.05;;;;;;;;;;5052923;28;20032;-86
2020/12/05 14:39:14;;;;;;;18.80;11.82;;;;;;;;;;5065038;28;20032;-85
2020/12/05 14:42:00;;;;;;;15.23;10.25;;;;;;;;;;5065086;28;20083;-86
2020/12/05 14:44:46;;;;;;;16.67;10.90;;;;;;;;;;5061869;28;20017;-86
2020/12/05 14:47:31;;;;;;;13.60;10.13;;;;;;;;;;5057809;28;20547;-86
2020/12/05 14:50:16;;;;;;;19.08;12.20;;;;;;;;;;5058840;28;20027;-86
2020/12/05 14:53:02;;;;;;;18.33;13.23;;;;;;;;;;5060521;28;20133;-85
2020/12/05 14:55:47;;;;;;;17.08;11.48;;;;;;;;;;5067114;28;20379;-87
2020/12/05 14:58:33;;;;;;;19.58;11.88;;;;;;;;;;5057799;28;20382;-85
2020/12/05 15:01:22;;;;;;;18.92;12.88;;;;;;;;;;5056591;28;20517;-87
2020/12/05 15:04:08;;;;;;;19.52;14.55;;;;;;;;;;5064862;28;20104;-86
2020/12/05 15:06:53;;;;;;;20.70;14.25;;;;;;;;;;5063152;28;20060;-85
2020/12/05 15:09:39;;;;;;;21.38;14.68;;;;;;;;;;5063644;28;20107;-86
2020/12/05 15:12:24;;;;;;;18.92;13.23;;;;;;;;;;5058924;28;20109;-86
2020/12/05 15:15:09;;;;;;;19.80;14.27;;;;;;;;;;5049833;28;20378;-86
2020/12/05 15:17:58;;;;;;;21.63;14.20;;;;;;;;;;5067273;28;20047;-90
2020/12/05 15:20:51;;;;;;;20.38;14.43;;;;;;;;;;5048592;28;20022;-88
2020/12/05 15:23:36;;;;;;;27.65;15.50;;;;;;;;;;5053797;28;20498;-82
2020/12/05 15:26:22;;;;;;;23.75;15.40;;;;;;;;;;5056176;28;20021;-86
2020/12/05 15:29:07;;;;;;;23.05;14.95;;;;;;;;;;5062139;28;20080;-87
2020/12/05 15:31:56;;;;;;;18.42;13.52;;;;;;;;;;5046929;28;20085;-86
2020/12/05 15:34:41;;;;;;;22.42;15.20;;;;;;;;;;5069753;28;20367;-87
2020/12/05 15:37:26;;;;;;;21.17;14.60;;;;;;;;;;5060355;28;20040;-88
2020/12/05 15:40:11;;;;;;;24.33;16.40;;;;;;;;;;5064102;28;20038;-86
2020/12/05 15:42:57;;;;;;;21.02;13.52;;;;;;;;;;5055395;28;20023;-87
2020/12/05 15:45:42;;;;;;;21.08;14.57;;;;;;;;;;5066251;28;20352;-89
2020/12/05 15:48:28;;;;;;;23.45;15.40;;;;;;;;;;5071289;28;20027;-88
2020/12/05 15:51:16;;;;;;;23.92;15.30;;;;;;;;;;5066624;28;20111;-89
2020/12/05 15:54:02;;;;;;;21.42;14.63;;;;;;;;;;5070381;28;20021;-89
2020/12/05 15:56:48;;;;;;;25.80;17.13;;;;;;;;;;5068678;28;20058;-79
2020/12/05 15:59:35;;;;;;;24.45;16.02;;;;;;;;;;5067210;28;20021;-82
2020/12/05 16:02:23;;;;;;;22.40;15.88;;;;;;;;;;5075733;28;20109;-91
2020/12/05 16:05:08;;;;;;;23.05;14.77;;;;;;;;;;5084528;28;20012;-91
2020/12/05 16:07:54;;;;;;;23.35;15.25;;;;;;;;;;5089689;28;20064;-93
2020/12/05 16:10:42;;;;;;;35.72;23.25;;;;;;;;;;5075951;28;20030;-93
2020/12/05 16:13:28;;;;;;;24.13;17.05;;;;;;;;;;5064839;28;20114;-92
2020/12/05 16:16:18;;;;;;;23.35;15.32;;;;;;;;;;5079431;28;20016;-92
2020/12/05 16:19:06;;;;;;;25.02;17.02;;;;;;;;;;5082664;28;20028;-92
2020/12/05 16:21:52;;;;;;;26.42;17.30;;;;;;;;;;5069425;28;20028;-89
2020/12/05 16:24:38;;;;;;;21.52;14.52;;;;;;;;;;5071663;28;20055;-92
2020/12/05 16:27:27;;;;;;;23.10;15.23;;;;;;;;;;5075223;28;20020;-92
2020/12/05 16:30:13;;;;;;;24.58;15.13;;;;;;;;;;5076136;28;20016;-92
2020/12/05 16:32:58;;;;;;;24.88;15.85;;;;;;;;;;5063833;28;20056;-92
2020/12/05 16:35:44;;;;;;;58.17;40.17;;;;;;;;;;5061443;28;20021;-92
2020/12/05 16:38:29;;;;;;;68.28;46.65;;;;;;;;;;5068628;28;20025;-92